createdAt,value
2018-03-29T00:00:05.956Z,0
2018-03-29T00:00:46.503Z,0
2018-03-29T00:01:27.053Z,0
2018-03-29T00:02:07.531Z,0
2018-03-29T00:02:48.033Z,0
2018-03-29T00:03:28.537Z,0
2018-03-29T00:04:09.069Z,0
2018-03-29T00:04:49.566Z,0
2018-03-29T00:05:30.119Z,0
2018-03-29T00:06:10.612Z,0
2018-03-29T00:06:51.229Z,0
2018-03-29T00:07:31.717Z,0
2018-03-29T00:08:12.226Z,0
2018-03-29T00:08:52.712Z,0
2018-03-29T00:09:33.252Z,0
2018-03-29T00:10:13.750Z,0
2018-03-29T00:10:54.242Z,0
2018-03-29T00:11:34.751Z,0
2018-03-29T00:12:15.265Z,0
2018-03-29T00:12:55.783Z,0
2018-03-29T00:13:36.272Z,0
2018-03-29T00:14:16.848Z,0
2018-03-29T00:14:57.393Z,0
2018-03-29T00:15:37.892Z,0
2018-03-29T00:16:18.407Z,0
2018-03-29T00:16:58.958Z,0
2018-03-29T00:17:39.692Z,0
2018-03-29T00:18:20.163Z,0
2018-03-29T00:19:00.710Z,0
2018-03-29T00:19:41.179Z,0
2018-03-29T00:20:21.664Z,0
2018-03-29T00:21:02.170Z,0
2018-03-29T00:21:42.684Z,0
2018-03-29T00:22:23.204Z,0
2018-03-29T00:23:03.735Z,0
2018-03-29T00:23:44.239Z,0
2018-03-29T00:24:24.741Z,0
2018-03-29T00:25:05.270Z,0
2018-03-29T00:25:45.803Z,0
2018-03-29T00:26:26.331Z,0
2018-03-29T00:27:06.873Z,0
2018-03-29T00:27:47.372Z,0
2018-03-29T00:28:27.888Z,0
2018-03-29T00:29:08.413Z,0
2018-03-29T00:29:48.914Z,0
2018-03-29T00:30:29.446Z,0
2018-03-29T00:31:09.951Z,0
2018-03-29T00:31:50.483Z,0
2018-03-29T00:32:30.978Z,0
2018-03-29T00:33:11.480Z,0
2018-03-29T00:33:52.019Z,0
2018-03-29T00:34:32.521Z,0
2018-03-29T00:35:13.032Z,0
2018-03-29T00:35:53.555Z,0
2018-03-29T00:36:34.070Z,0
2018-03-29T00:37:14.605Z,0
2018-03-29T00:37:55.099Z,0
2018-03-29T00:38:35.604Z,0
2018-03-29T00:39:16.126Z,0
2018-03-29T00:39:56.642Z,0
2018-03-29T00:40:37.140Z,0
2018-03-29T00:41:17.660Z,0
2018-03-29T00:41:58.162Z,0
2018-03-29T00:42:38.841Z,0
2018-03-29T00:43:19.328Z,0
2018-03-29T00:43:59.798Z,0
2018-03-29T00:44:40.309Z,0
2018-03-29T00:45:20.797Z,0
2018-03-29T00:46:01.307Z,0
2018-03-29T00:46:41.824Z,0
2018-03-29T00:47:22.345Z,0
2018-03-29T00:48:02.853Z,0
2018-03-29T00:48:43.371Z,0
2018-03-29T00:49:23.886Z,0
2018-03-29T00:50:04.403Z,0
2018-03-29T00:50:44.898Z,0
2018-03-29T00:51:25.430Z,0
2018-03-29T00:52:05.965Z,0
2018-03-29T00:52:46.546Z,0
2018-03-29T00:53:27.056Z,0
2018-03-29T00:54:07.553Z,0
2018-03-29T00:54:48.067Z,0
2018-03-29T00:55:28.655Z,0
2018-03-29T00:56:09.178Z,0
2018-03-29T00:56:49.691Z,0
2018-03-29T00:57:30.195Z,0
2018-03-29T00:58:10.703Z,0
2018-03-29T00:58:51.218Z,0
2018-03-29T00:59:31.737Z,0
2018-03-29T01:00:12.247Z,0
2018-03-29T01:00:52.742Z,0
2018-03-29T01:01:33.247Z,0
2018-03-29T01:02:13.761Z,0
2018-03-29T01:02:54.296Z,0
2018-03-29T01:03:34.804Z,0
2018-03-29T01:04:15.305Z,0
2018-03-29T01:04:55.795Z,0
2018-03-29T01:05:36.266Z,0
2018-03-29T01:06:16.759Z,0
2018-03-29T01:06:57.256Z,0
2018-03-29T01:07:37.775Z,0
2018-03-29T01:08:18.292Z,0
2018-03-29T01:08:58.760Z,0
2018-03-29T01:09:39.338Z,0
2018-03-29T01:10:19.917Z,0
2018-03-29T01:11:00.402Z,0
2018-03-29T01:11:40.877Z,0
2018-03-29T01:12:21.340Z,0
2018-03-29T01:13:01.840Z,0
2018-03-29T01:13:42.283Z,0
2018-03-29T01:14:22.791Z,0
2018-03-29T01:15:03.268Z,0
2018-03-29T01:15:43.756Z,0
2018-03-29T01:16:24.254Z,0
2018-03-29T01:17:04.707Z,0
2018-03-29T01:17:45.185Z,0
2018-03-29T01:18:25.704Z,0
2018-03-29T01:19:06.234Z,0
2018-03-29T01:19:46.708Z,0
2018-03-29T01:20:27.186Z,0
2018-03-29T01:21:07.673Z,0
2018-03-29T01:21:48.228Z,0
2018-03-29T01:22:28.728Z,0
2018-03-29T01:23:09.219Z,0
2018-03-29T01:23:49.689Z,0
2018-03-29T01:24:30.182Z,0
2018-03-29T01:25:10.643Z,0
2018-03-29T01:25:51.119Z,0
2018-03-29T01:26:31.619Z,0
2018-03-29T01:27:12.073Z,0
2018-03-29T01:27:52.590Z,0
2018-03-29T01:28:33.049Z,0
2018-03-29T01:29:13.583Z,0
2018-03-29T01:29:54.034Z,0
2018-03-29T01:30:34.489Z,0
2018-03-29T01:31:15.024Z,0
2018-03-29T01:31:55.507Z,0
2018-03-29T01:32:36.014Z,0
2018-03-29T01:33:16.478Z,0
2018-03-29T01:33:56.981Z,0
2018-03-29T01:34:37.488Z,0
2018-03-29T01:35:17.972Z,0
2018-03-29T01:35:58.466Z,0
2018-03-29T01:36:39.000Z,0
2018-03-29T01:37:19.497Z,0
2018-03-29T01:38:00.011Z,0
2018-03-29T01:38:40.513Z,0
2018-03-29T01:39:21.015Z,0
2018-03-29T01:40:01.547Z,0
2018-03-29T01:40:42.054Z,0
2018-03-29T01:41:22.556Z,0
2018-03-29T01:42:03.070Z,0
2018-03-29T01:42:43.573Z,0
2018-03-29T01:43:24.076Z,0
2018-03-29T01:44:04.600Z,0
2018-03-29T01:44:45.111Z,0
2018-03-29T01:45:25.590Z,0
2018-03-29T01:46:06.114Z,0
2018-03-29T01:46:46.579Z,0
2018-03-29T01:47:27.120Z,0
2018-03-29T01:48:07.642Z,0
2018-03-29T01:48:48.133Z,0
2018-03-29T01:49:28.644Z,0
2018-03-29T01:50:09.149Z,0
2018-03-29T01:50:49.588Z,0
2018-03-29T01:51:30.091Z,0
2018-03-29T01:52:10.639Z,0
2018-03-29T01:52:51.076Z,0
2018-03-29T01:53:31.612Z,0
2018-03-29T01:54:12.090Z,0
2018-03-29T01:54:52.589Z,0
2018-03-29T01:55:33.063Z,0
2018-03-29T01:56:13.544Z,0
2018-03-29T01:56:54.079Z,0
2018-03-29T01:57:34.625Z,0
2018-03-29T01:58:15.089Z,0
2018-03-29T01:58:55.638Z,0
2018-03-29T01:59:36.144Z,0
2018-03-29T02:00:16.657Z,0
2018-03-29T02:00:57.177Z,0
2018-03-29T02:01:37.639Z,0
2018-03-29T02:02:18.127Z,0
2018-03-29T02:02:58.638Z,0
2018-03-29T02:03:39.200Z,0
2018-03-29T02:04:19.674Z,0
2018-03-29T02:05:00.217Z,0
2018-03-29T02:05:40.672Z,0
2018-03-29T02:06:21.158Z,0
2018-03-29T02:07:01.655Z,0
2018-03-29T02:07:42.185Z,0
2018-03-29T02:08:22.647Z,0
2018-03-29T02:09:03.180Z,0
2018-03-29T02:09:43.657Z,0
2018-03-29T02:10:24.133Z,0
2018-03-29T02:11:04.646Z,0
2018-03-29T02:11:45.154Z,0
2018-03-29T02:12:25.689Z,0
2018-03-29T02:13:06.214Z,0
2018-03-29T02:13:46.717Z,0
2018-03-29T02:14:27.209Z,0
2018-03-29T02:15:07.728Z,0
2018-03-29T02:15:48.246Z,0
2018-03-29T02:16:28.744Z,0
2018-03-29T02:17:09.235Z,0
2018-03-29T02:17:49.752Z,0
2018-03-29T02:18:30.255Z,0
2018-03-29T02:19:10.746Z,0
2018-03-29T02:19:51.248Z,0
2018-03-29T02:20:31.746Z,0
2018-03-29T02:21:12.224Z,0
2018-03-29T02:21:52.736Z,0
2018-03-29T02:22:33.258Z,0
2018-03-29T02:23:13.839Z,0
2018-03-29T02:23:54.340Z,0
2018-03-29T02:24:34.852Z,0
2018-03-29T02:25:15.327Z,0
2018-03-29T02:25:55.844Z,0
2018-03-29T02:26:36.360Z,0
2018-03-29T02:27:16.851Z,0
2018-03-29T02:27:57.377Z,0
2018-03-29T02:28:37.860Z,0
2018-03-29T02:29:18.361Z,0
2018-03-29T02:29:58.865Z,0
2018-03-29T02:30:39.368Z,0
2018-03-29T02:31:19.851Z,0
2018-03-29T02:32:00.369Z,0
2018-03-29T02:32:40.861Z,0
2018-03-29T02:33:21.363Z,0
2018-03-29T02:34:01.875Z,0
2018-03-29T02:34:42.410Z,0
2018-03-29T02:35:22.851Z,0
2018-03-29T02:36:03.327Z,0
2018-03-29T02:36:43.822Z,0
2018-03-29T02:37:24.461Z,0
2018-03-29T02:38:04.927Z,0
2018-03-29T02:38:45.384Z,0
2018-03-29T02:39:25.876Z,0
2018-03-29T02:40:06.390Z,0
2018-03-29T02:40:46.893Z,0
2018-03-29T02:41:27.373Z,0
2018-03-29T02:42:07.861Z,0
2018-03-29T02:42:48.452Z,0
2018-03-29T02:43:28.872Z,0
2018-03-29T02:44:09.368Z,0
2018-03-29T02:44:49.838Z,0
2018-03-29T02:45:30.368Z,0
2018-03-29T02:46:10.859Z,0
2018-03-29T02:46:51.329Z,0
2018-03-29T02:47:31.876Z,0
2018-03-29T02:48:12.349Z,0
2018-03-29T02:48:52.877Z,0
2018-03-29T02:49:33.353Z,0
2018-03-29T02:50:13.862Z,0
2018-03-29T02:50:54.414Z,0
2018-03-29T02:51:34.890Z,0
2018-03-29T02:52:15.388Z,0
2018-03-29T02:52:55.900Z,0
2018-03-29T02:53:36.418Z,0
2018-03-29T02:54:16.927Z,0
2018-03-29T02:54:57.446Z,0
2018-03-29T02:55:37.939Z,0
2018-03-29T02:56:18.465Z,0
2018-03-29T02:56:58.976Z,0
2018-03-29T02:57:39.482Z,0
2018-03-29T02:58:19.970Z,0
2018-03-29T02:59:00.467Z,0
2018-03-29T02:59:40.999Z,0
2018-03-29T03:00:21.518Z,0
2018-03-29T03:01:02.038Z,0
2018-03-29T03:01:42.543Z,0
2018-03-29T03:02:23.063Z,0
2018-03-29T03:03:03.577Z,0
2018-03-29T03:03:44.095Z,0
2018-03-29T03:04:24.605Z,0
2018-03-29T03:05:05.138Z,0
2018-03-29T03:05:45.648Z,0
2018-03-29T03:06:26.136Z,0
2018-03-29T03:07:06.653Z,0
2018-03-29T03:07:47.169Z,0
2018-03-29T03:08:27.686Z,0
2018-03-29T03:09:08.205Z,0
2018-03-29T03:09:48.719Z,0
2018-03-29T03:10:29.257Z,0
2018-03-29T03:11:09.756Z,0
2018-03-29T03:11:50.306Z,0
2018-03-29T03:12:30.769Z,0
2018-03-29T03:13:11.275Z,0
2018-03-29T03:13:51.858Z,0
2018-03-29T03:14:32.292Z,0
2018-03-29T03:15:12.806Z,0
2018-03-29T03:15:53.296Z,0
2018-03-29T03:18:28.721Z,0
2018-03-29T03:19:09.210Z,0
2018-03-29T03:19:49.729Z,0
2018-03-29T03:20:30.236Z,0
2018-03-29T03:21:10.784Z,0
2018-03-29T03:21:51.283Z,0
2018-03-29T03:22:31.804Z,0
2018-03-29T03:23:12.334Z,0
2018-03-29T03:23:52.834Z,0
2018-03-29T03:24:33.336Z,0
2018-03-29T03:25:13.835Z,0
2018-03-29T03:25:54.351Z,0
2018-03-29T03:26:34.860Z,0
2018-03-29T03:27:15.380Z,0
2018-03-29T03:27:55.924Z,0
2018-03-29T03:28:36.441Z,0
2018-03-29T03:29:16.965Z,0
2018-03-29T03:29:57.473Z,0
2018-03-29T03:30:37.996Z,0
2018-03-29T03:31:18.502Z,0
2018-03-29T03:31:59.026Z,0
2018-03-29T03:32:39.537Z,0
2018-03-29T03:33:20.052Z,0
2018-03-29T03:34:00.574Z,0
2018-03-29T03:34:41.073Z,0
2018-03-29T03:35:21.651Z,0
2018-03-29T03:36:02.169Z,0
2018-03-29T03:36:42.683Z,0
2018-03-29T03:37:23.195Z,0
2018-03-29T03:38:03.711Z,0
2018-03-29T03:38:44.221Z,0
2018-03-29T03:39:24.736Z,0
2018-03-29T03:40:05.262Z,0
2018-03-29T03:40:45.828Z,0
2018-03-29T03:41:26.289Z,0
2018-03-29T03:42:06.813Z,0
2018-03-29T03:42:47.323Z,0
2018-03-29T03:43:27.824Z,0
2018-03-29T03:44:08.344Z,0
2018-03-29T03:44:48.847Z,0
2018-03-29T03:45:29.338Z,0
2018-03-29T03:46:09.836Z,0
2018-03-29T03:46:50.350Z,0
2018-03-29T03:47:30.882Z,0
2018-03-29T03:48:11.372Z,0
2018-03-29T03:48:51.874Z,0
2018-03-29T03:49:32.380Z,0
2018-03-29T03:50:12.919Z,0
2018-03-29T03:50:53.428Z,0
2018-03-29T03:51:33.955Z,0
2018-03-29T03:52:14.476Z,0
2018-03-29T03:52:54.980Z,0
2018-03-29T03:53:35.496Z,0
2018-03-29T03:54:16.010Z,0
2018-03-29T03:54:56.515Z,0
2018-03-29T03:55:37.021Z,0
2018-03-29T03:56:17.519Z,0
2018-03-29T03:56:58.040Z,0
2018-03-29T03:57:38.575Z,0
2018-03-29T03:58:19.034Z,0
2018-03-29T03:58:59.556Z,0
2018-03-29T03:59:40.043Z,0
2018-03-29T04:00:20.543Z,0
2018-03-29T04:01:01.049Z,0
2018-03-29T04:01:41.544Z,0
2018-03-29T04:02:22.089Z,0
2018-03-29T04:03:02.584Z,0
2018-03-29T04:03:43.096Z,0
2018-03-29T04:04:23.601Z,0
2018-03-29T04:05:04.104Z,0
2018-03-29T04:05:44.617Z,0
2018-03-29T04:06:25.098Z,0
2018-03-29T04:07:05.609Z,0
2018-03-29T04:07:46.131Z,0
2018-03-29T04:08:26.650Z,0
2018-03-29T04:09:07.159Z,0
2018-03-29T04:09:47.652Z,0
2018-03-29T04:10:28.158Z,0
2018-03-29T04:11:08.848Z,0
2018-03-29T04:11:49.302Z,0
2018-03-29T04:12:29.818Z,0
2018-03-29T04:13:10.341Z,0
2018-03-29T04:13:50.842Z,0
2018-03-29T04:14:31.367Z,0
2018-03-29T04:15:11.891Z,0
2018-03-29T04:15:52.393Z,0
2018-03-29T04:16:32.906Z,0
2018-03-29T04:17:13.430Z,0
2018-03-29T04:17:53.953Z,0
2018-03-29T04:18:34.464Z,0
2018-03-29T04:19:14.971Z,0
2018-03-29T04:19:55.549Z,0
2018-03-29T04:20:36.023Z,0
2018-03-29T04:21:16.533Z,0
2018-03-29T04:21:57.049Z,0
2018-03-29T04:22:37.562Z,0
2018-03-29T04:23:18.132Z,0
2018-03-29T04:23:58.618Z,0
2018-03-29T04:24:39.104Z,0
2018-03-29T04:25:19.601Z,0
2018-03-29T04:26:00.097Z,0
2018-03-29T04:26:40.589Z,0
2018-03-29T04:27:21.044Z,0
2018-03-29T04:28:01.573Z,0
2018-03-29T04:28:42.096Z,0
2018-03-29T04:29:22.617Z,0
2018-03-29T04:30:03.118Z,0
2018-03-29T04:30:43.659Z,0
2018-03-29T04:31:24.189Z,0
2018-03-29T04:32:04.702Z,0
2018-03-29T04:32:45.208Z,0
2018-03-29T04:33:25.719Z,0
2018-03-29T04:34:06.230Z,0
2018-03-29T04:34:46.730Z,0
2018-03-29T04:35:27.268Z,0
2018-03-29T04:36:07.741Z,0
2018-03-29T04:36:48.245Z,0
2018-03-29T04:37:28.761Z,0
2018-03-29T04:38:09.272Z,0
2018-03-29T04:38:49.775Z,0
2018-03-29T04:39:30.291Z,0
2018-03-29T04:40:10.791Z,0
2018-03-29T04:40:51.297Z,0
2018-03-29T04:41:31.759Z,0
2018-03-29T04:42:12.282Z,0
2018-03-29T04:42:52.786Z,0
2018-03-29T04:43:33.295Z,0
2018-03-29T04:44:13.794Z,0
2018-03-29T04:44:54.296Z,0
2018-03-29T04:45:34.809Z,0
2018-03-29T04:46:15.303Z,0
2018-03-29T04:46:55.826Z,0
2018-03-29T04:47:36.341Z,0
2018-03-29T04:48:16.821Z,0
2018-03-29T04:48:57.355Z,0
2018-03-29T04:49:37.802Z,0
2018-03-29T04:50:18.275Z,0
2018-03-29T04:50:58.744Z,0
2018-03-29T04:51:39.235Z,0
2018-03-29T04:52:19.717Z,0
2018-03-29T04:53:00.242Z,0
2018-03-29T04:53:40.734Z,0
2018-03-29T04:54:21.257Z,0
2018-03-29T04:55:01.773Z,0
2018-03-29T04:55:42.280Z,0
2018-03-29T04:56:22.791Z,0
2018-03-29T04:57:03.309Z,0
2018-03-29T04:57:43.842Z,0
2018-03-29T04:58:24.415Z,0
2018-03-29T04:59:04.800Z,0
2018-03-29T04:59:45.294Z,0
2018-03-29T05:00:25.793Z,0
2018-03-29T05:01:06.295Z,0
2018-03-29T05:01:46.753Z,0
2018-03-29T05:02:27.268Z,0
2018-03-29T05:03:07.755Z,0
2018-03-29T05:03:48.279Z,0
2018-03-29T05:04:28.738Z,0
2018-03-29T05:05:09.219Z,0
2018-03-29T05:05:49.710Z,0
2018-03-29T05:06:30.201Z,0
2018-03-29T05:07:10.700Z,0
2018-03-29T05:07:51.212Z,0
2018-03-29T05:08:31.668Z,0
2018-03-29T05:09:12.170Z,0
2018-03-29T05:11:40.742Z,0
2018-03-29T05:12:21.209Z,0
2018-03-29T05:13:01.705Z,0
2018-03-29T05:13:42.217Z,5
2018-03-29T05:14:22.742Z,5
2018-03-29T05:15:03.245Z,5
2018-03-29T05:15:43.749Z,5
2018-03-29T05:16:24.234Z,5
2018-03-29T05:17:04.748Z,5
2018-03-29T05:17:45.347Z,5
2018-03-29T05:18:25.806Z,5
2018-03-29T05:19:06.304Z,5
2018-03-29T05:19:46.800Z,5
2018-03-29T05:20:27.288Z,5
2018-03-29T05:21:07.796Z,5
2018-03-29T05:21:48.303Z,5
2018-03-29T05:22:28.759Z,5
2018-03-29T05:23:09.245Z,5
2018-03-29T05:23:49.748Z,5
2018-03-29T05:24:30.230Z,5
2018-03-29T05:25:10.740Z,10
2018-03-29T05:25:51.227Z,10
2018-03-29T05:26:31.758Z,10
2018-03-29T05:27:12.237Z,10
2018-03-29T05:27:52.702Z,10
2018-03-29T05:28:33.302Z,10
2018-03-29T05:29:13.744Z,10
2018-03-29T05:29:54.162Z,10
2018-03-29T05:30:34.729Z,10
2018-03-29T05:31:15.245Z,10
2018-03-29T05:31:55.716Z,10
2018-03-29T05:32:36.204Z,10
2018-03-29T05:33:16.752Z,10
2018-03-29T05:33:57.508Z,15
2018-03-29T05:34:38.014Z,15
2018-03-29T05:35:18.528Z,15
2018-03-29T05:35:59.093Z,15
2018-03-29T05:36:39.598Z,15
2018-03-29T05:37:20.089Z,15
2018-03-29T05:38:00.590Z,15
2018-03-29T05:38:41.095Z,20
2018-03-29T05:39:21.592Z,20
2018-03-29T05:40:02.111Z,20
2018-03-29T05:40:42.628Z,25
2018-03-29T05:41:23.171Z,25
2018-03-29T05:42:03.681Z,25
2018-03-29T05:42:44.198Z,30
2018-03-29T05:43:24.695Z,30
2018-03-29T05:44:05.207Z,30
2018-03-29T05:44:45.698Z,30
2018-03-29T05:45:26.222Z,35
2018-03-29T05:46:06.746Z,35
2018-03-29T05:46:47.236Z,35
2018-03-29T05:47:27.728Z,30
2018-03-29T05:48:08.225Z,30
2018-03-29T05:48:48.763Z,30
2018-03-29T05:49:29.294Z,30
2018-03-29T05:50:09.806Z,30
2018-03-29T05:50:50.282Z,30
2018-03-29T05:51:30.772Z,30
2018-03-29T05:52:11.294Z,30
2018-03-29T05:52:51.834Z,35
2018-03-29T05:53:32.336Z,35
2018-03-29T05:54:12.839Z,35
2018-03-29T05:54:53.334Z,40
2018-03-29T05:55:33.854Z,40
2018-03-29T05:56:14.355Z,45
2018-03-29T05:56:54.859Z,50
2018-03-29T05:57:35.384Z,55
2018-03-29T05:58:15.904Z,55
2018-03-29T05:58:56.411Z,55
2018-03-29T05:59:36.884Z,60
2018-03-29T06:00:17.354Z,60
2018-03-29T06:00:57.878Z,65
2018-03-29T06:01:38.348Z,65
2018-03-29T06:02:18.886Z,65
2018-03-29T06:02:59.693Z,65
2018-03-29T06:03:40.107Z,65
2018-03-29T06:04:20.564Z,70
2018-03-29T06:05:01.087Z,65
2018-03-29T06:05:41.555Z,65
2018-03-29T06:06:22.012Z,70
2018-03-29T06:07:02.521Z,70
2018-03-29T06:07:43.014Z,70
2018-03-29T06:08:23.525Z,75
2018-03-29T06:09:04.018Z,75
2018-03-29T06:09:44.576Z,75
2018-03-29T06:10:25.038Z,75
2018-03-29T06:11:05.523Z,75
2018-03-29T06:11:46.002Z,75
2018-03-29T06:12:26.507Z,75
2018-03-29T06:13:07.013Z,75
2018-03-29T06:13:47.586Z,75
2018-03-29T06:14:28.127Z,80
2018-03-29T06:15:08.615Z,80
2018-03-29T06:15:49.141Z,85
2018-03-29T06:16:29.661Z,85
2018-03-29T06:17:10.163Z,85
2018-03-29T06:17:50.691Z,85
2018-03-29T06:18:31.162Z,85
2018-03-29T06:19:11.664Z,85
2018-03-29T06:19:52.149Z,85
2018-03-29T06:20:32.685Z,85
2018-03-29T06:21:13.146Z,85
2018-03-29T06:21:53.661Z,85
2018-03-29T06:22:34.203Z,90
2018-03-29T06:23:14.742Z,90
2018-03-29T06:23:55.243Z,90
2018-03-29T06:24:35.742Z,90
2018-03-29T06:25:16.290Z,90
2018-03-29T06:25:56.782Z,90
2018-03-29T06:26:37.302Z,90
2018-03-29T06:27:17.840Z,90
2018-03-29T06:27:58.313Z,90
2018-03-29T06:28:38.842Z,90
2018-03-29T06:29:19.337Z,95
2018-03-29T06:29:59.877Z,95
2018-03-29T06:30:40.318Z,95
2018-03-29T06:31:20.837Z,95
2018-03-29T06:32:01.288Z,100
2018-03-29T06:32:41.830Z,100
2018-03-29T06:33:22.316Z,100
2018-03-29T06:34:02.841Z,100
2018-03-29T06:34:43.331Z,100
2018-03-29T06:35:23.817Z,100
2018-03-29T06:36:04.342Z,100
2018-03-29T06:36:44.859Z,100
2018-03-29T06:37:25.359Z,100
2018-03-29T06:38:05.864Z,100
2018-03-29T06:38:46.376Z,100
2018-03-29T06:39:26.838Z,100
2018-03-29T06:40:07.343Z,100
2018-03-29T06:40:47.798Z,100
2018-03-29T06:41:28.276Z,100
2018-03-29T06:42:08.888Z,100
2018-03-29T06:42:49.261Z,100
2018-03-29T06:43:29.754Z,100
2018-03-29T06:44:10.380Z,100
2018-03-29T06:44:50.876Z,100
2018-03-29T06:45:31.403Z,100
2018-03-29T06:46:11.920Z,100
2018-03-29T06:46:52.387Z,100
2018-03-29T06:47:32.852Z,100
2018-03-29T06:48:13.359Z,100
2018-03-29T06:48:53.879Z,100
2018-03-29T06:49:34.333Z,100
2018-03-29T06:50:15.234Z,100
2018-03-29T06:50:55.670Z,100
2018-03-29T06:51:36.215Z,105
2018-03-29T06:52:16.715Z,105
2018-03-29T06:52:57.279Z,105
2018-03-29T06:53:37.765Z,105
2018-03-29T06:54:18.258Z,105
2018-03-29T06:54:58.821Z,105
2018-03-29T06:55:39.313Z,105
2018-03-29T06:56:19.840Z,105
2018-03-29T06:57:00.346Z,110
2018-03-29T06:57:40.844Z,110
2018-03-29T06:58:21.400Z,110
2018-03-29T06:59:01.848Z,110
2018-03-29T06:59:42.303Z,110
2018-03-29T07:00:22.799Z,110
2018-03-29T07:01:03.356Z,110
2018-03-29T07:01:43.778Z,110
2018-03-29T07:02:24.256Z,110
2018-03-29T07:03:05.012Z,110
2018-03-29T07:03:45.511Z,110
2018-03-29T07:04:26.014Z,110
2018-03-29T07:05:06.496Z,110
2018-03-29T07:05:46.959Z,115
2018-03-29T07:06:27.490Z,115
2018-03-29T07:07:07.977Z,125
2018-03-29T07:07:48.452Z,140
2018-03-29T07:08:28.908Z,150
2018-03-29T07:09:09.450Z,160
2018-03-29T07:09:49.983Z,165
2018-03-29T07:10:30.434Z,165
2018-03-29T07:11:10.908Z,165
2018-03-29T07:11:51.420Z,165
2018-03-29T07:12:31.890Z,165
2018-03-29T07:13:12.366Z,165
2018-03-29T07:13:52.904Z,165
2018-03-29T07:14:33.381Z,165
2018-03-29T07:15:13.874Z,165
2018-03-29T07:15:54.396Z,165
2018-03-29T07:16:34.908Z,165
2018-03-29T07:17:15.395Z,165
2018-03-29T07:17:55.942Z,165
2018-03-29T07:18:36.410Z,165
2018-03-29T07:19:16.921Z,165
2018-03-29T07:19:57.429Z,165
2018-03-29T07:20:37.901Z,165
2018-03-29T07:21:18.417Z,160
2018-03-29T07:21:58.972Z,160
2018-03-29T07:22:39.420Z,160
2018-03-29T07:23:19.981Z,160
2018-03-29T07:24:00.528Z,160
2018-03-29T07:24:41.106Z,160
2018-03-29T07:25:21.693Z,160
2018-03-29T07:26:02.120Z,160
2018-03-29T07:26:42.609Z,160
2018-03-29T07:27:23.111Z,160
2018-03-29T07:28:03.617Z,160
2018-03-29T07:28:44.131Z,160
2018-03-29T07:29:24.649Z,160
2018-03-29T07:30:05.207Z,165
2018-03-29T07:30:45.677Z,160
2018-03-29T07:31:26.256Z,155
2018-03-29T07:32:06.770Z,155
2018-03-29T07:32:47.314Z,155
2018-03-29T07:33:27.836Z,160
2018-03-29T07:34:08.335Z,160
2018-03-29T07:34:48.873Z,155
2018-03-29T07:35:29.368Z,155
2018-03-29T07:36:09.885Z,155
2018-03-29T07:36:50.393Z,155
2018-03-29T07:37:30.913Z,155
2018-03-29T07:38:11.452Z,155
2018-03-29T07:38:51.967Z,155
2018-03-29T07:39:32.508Z,155
2018-03-29T07:40:13.000Z,155
2018-03-29T07:40:53.544Z,155
2018-03-29T07:41:34.087Z,155
2018-03-29T07:42:14.648Z,155
2018-03-29T07:42:55.181Z,150
2018-03-29T07:43:35.702Z,155
2018-03-29T07:44:16.221Z,150
2018-03-29T07:44:56.844Z,150
2018-03-29T07:45:37.393Z,150
2018-03-29T07:46:17.913Z,145
2018-03-29T07:46:58.420Z,145
2018-03-29T07:47:38.950Z,145
2018-03-29T07:48:19.505Z,145
2018-03-29T07:49:00.088Z,135
2018-03-29T07:49:40.598Z,140
2018-03-29T07:50:21.162Z,145
2018-03-29T07:51:01.671Z,130
2018-03-29T07:51:42.197Z,150
2018-03-29T07:52:22.694Z,150
2018-03-29T07:53:03.197Z,140
2018-03-29T07:53:43.724Z,145
2018-03-29T07:54:24.448Z,145
2018-03-29T07:55:04.948Z,150
2018-03-29T07:55:45.462Z,165
2018-03-29T07:56:25.993Z,175
2018-03-29T07:57:06.955Z,175
2018-03-29T07:57:47.156Z,175
2018-03-29T07:58:27.692Z,180
2018-03-29T07:59:08.150Z,195
2018-03-29T07:59:48.681Z,205
2018-03-29T08:00:29.177Z,200
2018-03-29T08:01:09.674Z,195
2018-03-29T08:01:50.220Z,190
2018-03-29T08:02:30.743Z,185
2018-03-29T08:03:11.223Z,180
2018-03-29T08:03:51.757Z,180
2018-03-29T08:04:32.226Z,180
2018-03-29T08:05:12.774Z,185
2018-03-29T08:05:53.241Z,185
2018-03-29T08:06:33.742Z,180
2018-03-29T08:07:14.214Z,180
2018-03-29T08:07:54.753Z,175
2018-03-29T08:08:35.246Z,170
2018-03-29T08:09:15.737Z,165
2018-03-29T08:09:56.230Z,170
2018-03-29T08:10:36.696Z,165
2018-03-29T08:11:17.182Z,160
2018-03-29T08:11:57.635Z,150
2018-03-29T08:12:38.119Z,145
2018-03-29T08:13:18.742Z,150
2018-03-29T08:13:59.173Z,155
2018-03-29T08:14:39.663Z,155
2018-03-29T08:15:20.127Z,150
2018-03-29T08:16:00.647Z,160
2018-03-29T08:16:41.188Z,160
2018-03-29T08:17:21.610Z,160
2018-03-29T08:18:02.102Z,160
2018-03-29T08:18:42.733Z,160
2018-03-29T08:19:23.198Z,165
2018-03-29T08:20:03.678Z,165
2018-03-29T08:20:44.194Z,165
2018-03-29T08:21:24.719Z,170
2018-03-29T08:22:05.233Z,175
2018-03-29T08:22:45.766Z,175
2018-03-29T08:23:26.283Z,170
2018-03-29T08:24:06.783Z,170
2018-03-29T08:24:47.832Z,165
2018-03-29T08:25:27.989Z,160
2018-03-29T08:26:08.477Z,155
2018-03-29T08:26:48.980Z,160
2018-03-29T08:27:29.515Z,160
2018-03-29T08:28:09.978Z,160
2018-03-29T08:28:50.525Z,160
2018-03-29T08:29:30.977Z,165
2018-03-29T08:30:11.491Z,180
2018-03-29T08:30:51.975Z,175
2018-03-29T08:31:32.467Z,175
2018-03-29T08:32:13.039Z,175
2018-03-29T08:32:53.470Z,180
2018-03-29T08:33:34.091Z,180
2018-03-29T08:34:14.631Z,185
2018-03-29T08:34:55.034Z,190
2018-03-29T08:35:35.538Z,180
2018-03-29T08:36:16.036Z,160
2018-03-29T08:36:56.529Z,150
2018-03-29T08:37:37.026Z,150
2018-03-29T08:38:17.493Z,150
2018-03-29T08:38:57.998Z,150
2018-03-29T08:39:38.742Z,150
2018-03-29T08:40:19.183Z,170
2018-03-29T08:40:59.732Z,170
2018-03-29T08:41:40.256Z,160
2018-03-29T08:42:20.753Z,180
2018-03-29T08:43:01.276Z,180
2018-03-29T08:43:41.796Z,180
2018-03-29T08:44:22.244Z,170
2018-03-29T08:45:02.769Z,155
2018-03-29T08:45:43.308Z,140
2018-03-29T08:46:23.760Z,135
2018-03-29T08:47:04.237Z,120
2018-03-29T08:47:44.786Z,120
2018-03-29T08:48:25.306Z,120
2018-03-29T08:49:05.813Z,120
2018-03-29T08:49:46.265Z,140
2018-03-29T08:50:26.824Z,130
2018-03-29T08:51:07.258Z,130
2018-03-29T08:51:47.798Z,135
2018-03-29T08:52:28.335Z,135
2018-03-29T08:53:08.902Z,130
2018-03-29T08:53:49.318Z,130
2018-03-29T08:54:29.781Z,130
2018-03-29T08:55:10.320Z,130
2018-03-29T08:55:50.854Z,130
2018-03-29T08:56:31.312Z,135
2018-03-29T08:57:11.888Z,140
2018-03-29T08:57:52.334Z,165
2018-03-29T08:58:32.826Z,150
2018-03-29T08:59:13.361Z,165
2018-03-29T08:59:54.004Z,155
2018-03-29T09:00:34.539Z,165
2018-03-29T09:01:15.052Z,175
2018-03-29T09:01:55.614Z,185
2018-03-29T09:02:36.810Z,190
2018-03-29T09:03:17.418Z,190
2018-03-29T09:03:57.832Z,205
2018-03-29T09:04:38.365Z,205
2018-03-29T09:05:18.815Z,200
2018-03-29T09:05:59.361Z,205
2018-03-29T09:06:39.875Z,215
2018-03-29T09:07:20.432Z,225
2018-03-29T09:08:00.912Z,225
2018-03-29T09:08:41.475Z,220
2018-03-29T09:09:21.923Z,225
2018-03-29T09:10:02.405Z,235
2018-03-29T09:10:42.910Z,230
2018-03-29T09:11:23.419Z,245
2018-03-29T09:12:03.911Z,250
2018-03-29T09:12:44.467Z,230
2018-03-29T09:13:25.056Z,225
2018-03-29T09:14:05.583Z,235
2018-03-29T09:14:46.110Z,230
2018-03-29T09:15:26.612Z,235
2018-03-29T09:16:07.072Z,245
2018-03-29T09:16:47.614Z,245
2018-03-29T09:17:28.096Z,235
2018-03-29T09:18:08.611Z,235
2018-03-29T09:18:49.602Z,225
2018-03-29T09:19:30.164Z,235
2018-03-29T09:20:10.609Z,230
2018-03-29T09:20:51.121Z,225
2018-03-29T09:21:31.612Z,230
2018-03-29T09:22:12.110Z,235
2018-03-29T09:22:52.580Z,245
2018-03-29T09:23:33.059Z,245
2018-03-29T09:24:13.579Z,240
2018-03-29T09:24:54.081Z,235
2018-03-29T09:25:34.560Z,245
2018-03-29T09:26:15.073Z,245
2018-03-29T09:26:55.563Z,240
2018-03-29T09:27:36.051Z,235
2018-03-29T09:28:16.578Z,225
2018-03-29T09:28:57.101Z,220
2018-03-29T09:29:37.609Z,200
2018-03-29T09:30:18.109Z,195
2018-03-29T09:30:58.580Z,190
2018-03-29T09:31:39.067Z,195
2018-03-29T09:32:19.559Z,195
2018-03-29T09:33:00.414Z,190
2018-03-29T09:33:40.894Z,195
2018-03-29T09:34:21.352Z,190
2018-03-29T09:35:01.860Z,185
2018-03-29T09:35:42.412Z,180
2018-03-29T09:36:22.876Z,180
2018-03-29T09:37:03.316Z,170
2018-03-29T09:37:43.825Z,170
2018-03-29T09:38:24.316Z,180
2018-03-29T09:39:04.795Z,185
2018-03-29T09:39:45.319Z,185
2018-03-29T09:40:25.848Z,190
2018-03-29T09:41:06.330Z,185
2018-03-29T09:41:46.845Z,185
2018-03-29T09:42:27.405Z,190
2018-03-29T09:43:07.913Z,195
2018-03-29T09:43:48.414Z,195
2018-03-29T09:44:28.933Z,195
2018-03-29T09:45:09.439Z,195
2018-03-29T09:45:49.959Z,195